createdAt,value
2018-06-20T00:00:09.144Z,20.51
2018-06-20T00:02:37.523Z,20.52
2018-06-20T00:05:05.952Z,20.52
2018-06-20T00:07:34.331Z,20.52
2018-06-20T00:10:02.741Z,20.52
2018-06-20T00:12:31.077Z,20.52
2018-06-20T00:14:59.475Z,20.51
2018-06-20T00:17:27.809Z,20.50
2018-06-20T00:19:56.199Z,20.49
2018-06-20T00:22:24.844Z,20.49
2018-06-20T00:24:53.167Z,20.48
2018-06-20T00:27:21.519Z,20.48
2018-06-20T00:29:49.883Z,20.47
2018-06-20T00:32:18.324Z,20.45
2018-06-20T00:34:46.762Z,20.45
2018-06-20T00:37:15.160Z,20.45
2018-06-20T00:39:43.533Z,20.44
2018-06-20T00:42:11.967Z,20.42
2018-06-20T00:44:40.347Z,20.41
2018-06-20T00:47:08.757Z,20.40
2018-06-20T00:49:37.159Z,20.39
2018-06-20T00:52:05.528Z,20.38
2018-06-20T00:54:33.982Z,20.39
2018-06-20T00:57:02.367Z,20.39
2018-06-20T00:59:30.762Z,20.39
2018-06-20T01:01:59.160Z,20.40
2018-06-20T01:04:27.579Z,20.41
2018-06-20T01:06:55.953Z,20.41
2018-06-20T01:09:24.361Z,20.42
2018-06-20T01:11:52.868Z,20.41
2018-06-20T01:14:21.127Z,20.42
2018-06-20T01:16:49.495Z,20.42
2018-06-20T01:19:17.907Z,20.44
2018-06-20T01:21:46.254Z,20.43
2018-06-20T01:24:15.024Z,20.42
2018-06-20T01:26:43.422Z,20.45
2018-06-20T01:29:11.827Z,20.45
2018-06-20T01:31:40.219Z,20.45
2018-06-20T01:34:08.539Z,20.43
2018-06-20T01:36:36.918Z,20.42
2018-06-20T01:39:08.067Z,20.42
2018-06-20T01:41:36.474Z,20.43
2018-06-20T01:44:05.199Z,20.42
2018-06-20T01:46:33.594Z,20.41
2018-06-20T01:49:02.010Z,20.44
2018-06-20T01:51:30.428Z,20.44
2018-06-20T01:53:58.799Z,20.42
2018-06-20T01:56:27.196Z,20.41
2018-06-20T01:58:55.539Z,20.40
2018-06-20T02:01:23.959Z,20.40
2018-06-20T02:03:52.354Z,20.40
2018-06-20T02:06:20.760Z,20.41
2018-06-20T02:08:52.299Z,20.40
2018-06-20T02:11:20.715Z,20.39
2018-06-20T02:13:49.121Z,20.38
2018-06-20T02:16:17.552Z,20.36
2018-06-20T02:18:45.952Z,20.35
2018-06-20T02:21:14.397Z,20.34
2018-06-20T02:23:42.824Z,20.35
2018-06-20T02:26:11.236Z,20.35
2018-06-20T02:28:39.639Z,20.36
2018-06-20T02:31:08.361Z,20.37
2018-06-20T02:33:37.061Z,20.36
2018-06-20T02:36:10.888Z,20.35
2018-06-20T02:38:39.493Z,20.36
2018-06-20T02:41:07.908Z,20.37
2018-06-20T02:43:36.316Z,20.36
2018-06-20T02:46:04.800Z,20.35
2018-06-20T02:48:33.244Z,20.35
2018-06-20T02:51:01.640Z,20.33
2018-06-20T02:53:30.022Z,20.32
2018-06-20T02:55:58.416Z,20.33
2018-06-20T02:58:26.854Z,20.32
2018-06-20T03:00:55.447Z,20.30
2018-06-20T03:03:23.851Z,20.32
2018-06-20T03:05:52.261Z,20.33
2018-06-20T03:08:20.668Z,20.33
2018-06-20T03:10:49.076Z,20.32
2018-06-20T03:13:17.553Z,20.34
2018-06-20T03:15:46.791Z,20.35
2018-06-20T03:18:15.144Z,20.36
2018-06-20T03:20:43.527Z,20.36
2018-06-20T03:23:11.924Z,20.36
2018-06-20T03:25:40.362Z,20.36
2018-06-20T03:28:08.708Z,20.36
2018-06-20T03:30:37.122Z,20.35
2018-06-20T03:33:05.506Z,20.35
2018-06-20T03:35:33.944Z,20.34
2018-06-20T03:38:02.279Z,20.34
2018-06-20T03:40:30.652Z,20.34
2018-06-20T03:42:59.039Z,20.34
2018-06-20T03:45:27.489Z,20.35
2018-06-20T03:47:55.855Z,20.34
2018-06-20T03:50:24.252Z,20.35
2018-06-20T03:52:52.681Z,20.36
2018-06-20T03:55:21.135Z,20.36
2018-06-20T03:57:49.484Z,20.35
2018-06-20T04:00:17.934Z,20.34
2018-06-20T04:02:46.328Z,20.34
2018-06-20T04:05:14.713Z,20.34
2018-06-20T04:07:43.332Z,20.34
2018-06-20T04:10:11.631Z,20.36
2018-06-20T04:12:40.100Z,20.34
2018-06-20T04:15:08.442Z,20.34
2018-06-20T04:17:36.864Z,20.35
2018-06-20T04:20:05.261Z,20.35
2018-06-20T04:22:33.595Z,20.35
2018-06-20T04:25:01.956Z,20.35
2018-06-20T04:27:31.127Z,20.38
2018-06-20T04:29:59.501Z,20.38
2018-06-20T04:32:27.911Z,20.40
2018-06-20T04:34:56.299Z,20.40
2018-06-20T04:37:24.595Z,20.39
2018-06-20T04:39:53.859Z,20.42
2018-06-20T04:42:22.307Z,20.43
2018-06-20T04:44:50.719Z,20.45
2018-06-20T04:47:19.139Z,20.46
2018-06-20T04:49:47.533Z,20.47
2018-06-20T04:52:15.894Z,20.46
2018-06-20T04:54:44.263Z,20.39
2018-06-20T04:57:12.635Z,20.39
2018-06-20T04:59:41.070Z,20.39
2018-06-20T05:02:09.476Z,20.40
2018-06-20T05:04:37.856Z,20.47
2018-06-20T05:07:06.247Z,20.43
2018-06-20T05:09:34.642Z,20.45
2018-06-20T05:12:03.063Z,20.44
2018-06-20T05:14:31.696Z,20.45
2018-06-20T05:17:00.144Z,20.44
2018-06-20T05:19:28.498Z,20.44
2018-06-20T05:21:56.799Z,20.46
2018-06-20T05:24:25.124Z,20.46
2018-06-20T05:26:53.535Z,20.45
2018-06-20T05:29:53.132Z,20.46
2018-06-20T05:32:21.519Z,20.46
2018-06-20T05:34:49.912Z,20.48
2018-06-20T05:37:18.393Z,20.49
2018-06-20T05:39:46.837Z,20.51
2018-06-20T05:42:15.262Z,20.53
2018-06-20T05:44:44.004Z,20.56
2018-06-20T05:47:12.363Z,20.56
2018-06-20T05:49:40.773Z,20.59
2018-06-20T05:52:09.160Z,20.62
2018-06-20T05:54:37.499Z,20.63
2018-06-20T05:57:05.853Z,20.63
2018-06-20T05:59:34.292Z,20.65
2018-06-20T06:02:02.699Z,20.65
2018-06-20T06:04:31.120Z,20.66
2018-06-20T06:06:59.492Z,20.67
2018-06-20T06:09:27.887Z,20.71
2018-06-20T06:11:56.354Z,20.73
2018-06-20T06:14:24.712Z,20.76
2018-06-20T06:16:53.167Z,20.79
2018-06-20T06:19:21.519Z,20.82
2018-06-20T06:21:50.187Z,20.81
2018-06-20T06:24:18.552Z,20.82
2018-06-20T06:26:46.955Z,20.83
2018-06-20T06:29:15.307Z,20.87
2018-06-20T06:31:43.734Z,20.88
2018-06-20T06:34:12.199Z,20.90
2018-06-20T06:36:40.588Z,20.94
2018-06-20T06:39:11.076Z,20.96
2018-06-20T06:41:39.590Z,20.98
2018-06-20T06:44:08.011Z,21.00
2018-06-20T06:46:36.431Z,21.01
2018-06-20T06:49:04.870Z,21.01
2018-06-20T06:51:33.251Z,21.03
2018-06-20T06:54:01.624Z,21.03
2018-06-20T06:56:30.027Z,21.04
2018-06-20T06:58:58.460Z,21.04
2018-06-20T07:01:32.115Z,21.03
2018-06-20T07:04:00.518Z,21.02
2018-06-20T07:06:28.836Z,21.02
2018-06-20T07:08:57.243Z,20.97
2018-06-20T07:11:25.661Z,20.95
2018-06-20T07:13:54.086Z,20.92
2018-06-20T07:16:22.646Z,20.91
2018-06-20T07:18:51.039Z,20.91
2018-06-20T07:21:19.463Z,20.91
2018-06-20T07:23:47.823Z,20.94
2018-06-20T07:26:16.224Z,20.99
2018-06-20T07:28:44.655Z,21.06
2018-06-20T07:31:13.083Z,21.13
2018-06-20T07:33:41.512Z,21.20
2018-06-20T07:36:09.992Z,21.28
2018-06-20T07:38:38.355Z,21.36
2018-06-20T07:41:06.741Z,21.41
2018-06-20T07:43:35.188Z,21.46
2018-06-20T07:46:03.591Z,21.51
2018-06-20T07:48:32.179Z,21.53
2018-06-20T07:51:00.535Z,21.57
2018-06-20T07:53:28.879Z,21.58
2018-06-20T07:55:57.211Z,21.58
2018-06-20T07:58:30.846Z,21.59
2018-06-20T08:01:04.520Z,21.59
2018-06-20T08:03:38.251Z,21.57
2018-06-20T08:06:11.830Z,21.59
2018-06-20T08:08:45.478Z,21.59
2018-06-20T08:11:19.200Z,21.58
2018-06-20T08:13:52.862Z,21.60
2018-06-20T08:16:26.571Z,21.64
2018-06-20T08:19:00.235Z,21.69
2018-06-20T08:21:28.647Z,21.73
2018-06-20T08:23:57.023Z,21.76
2018-06-20T08:26:25.424Z,21.76
2018-06-20T08:28:53.812Z,21.75
2018-06-20T08:31:22.167Z,21.74
2018-06-20T08:33:50.595Z,21.71
2018-06-20T08:36:18.951Z,21.71
2018-06-20T08:38:47.357Z,21.73
2018-06-20T08:41:15.755Z,21.75
2018-06-20T08:43:44.197Z,21.80
2018-06-20T08:46:12.572Z,21.84
2018-06-20T08:48:40.875Z,21.88
2018-06-20T08:51:09.231Z,21.98
2018-06-20T08:53:37.663Z,22.06
2018-06-20T08:56:06.091Z,22.13
2018-06-20T08:58:34.779Z,22.20
2018-06-20T09:01:03.603Z,22.21
2018-06-20T09:03:32.029Z,22.24
2018-06-20T09:06:05.516Z,22.24
2018-06-20T09:08:39.205Z,22.21
2018-06-20T09:11:12.921Z,22.16
2018-06-20T09:13:45.430Z,22.12
2018-06-20T09:16:19.123Z,22.08
2018-06-20T09:18:52.733Z,22.08
2018-06-20T09:21:21.142Z,22.08
2018-06-20T09:23:49.643Z,22.11
2018-06-20T09:26:18.063Z,22.16
2018-06-20T09:28:46.479Z,22.25
2018-06-20T09:31:14.798Z,22.36
2018-06-20T09:33:43.183Z,22.48
2018-06-20T09:36:11.596Z,22.59
2018-06-20T09:38:40.004Z,22.68
2018-06-20T09:41:08.328Z,22.79
2018-06-20T09:43:36.834Z,22.85
2018-06-20T09:46:05.223Z,22.92
2018-06-20T09:48:33.608Z,22.95
2018-06-20T09:51:01.984Z,22.97
2018-06-20T09:53:30.416Z,22.96
2018-06-20T09:55:58.886Z,22.99
2018-06-20T09:58:27.321Z,23.05
2018-06-20T10:01:01.052Z,23.08
2018-06-20T10:04:32.615Z,23.10
2018-06-20T10:07:06.336Z,23.07
2018-06-20T10:09:40.022Z,23.04
2018-06-20T10:12:16.536Z,22.98
2018-06-20T10:14:45.012Z,22.90
2018-06-20T10:17:13.427Z,22.84
2018-06-20T10:19:41.980Z,22.83
2018-06-20T10:22:10.408Z,22.85
2018-06-20T10:24:38.738Z,22.89
2018-06-20T10:27:07.119Z,22.92
2018-06-20T10:29:35.580Z,22.94
2018-06-20T10:32:03.991Z,23.00
2018-06-20T10:34:32.431Z,23.09
2018-06-20T10:37:00.854Z,23.20
2018-06-20T10:39:29.427Z,23.28
2018-06-20T10:41:58.004Z,23.39
2018-06-20T10:44:26.440Z,23.53
2018-06-20T10:47:00.387Z,23.63
2018-06-20T10:49:28.858Z,23.81
2018-06-20T10:51:57.291Z,23.95
2018-06-20T10:54:25.993Z,24.08
2018-06-20T10:56:59.619Z,24.34
2018-06-20T10:59:33.325Z,24.76
2018-06-20T11:02:06.975Z,25.09
2018-06-20T11:04:40.737Z,25.37
2018-06-20T11:07:14.211Z,25.39
2018-06-20T11:09:47.920Z,25.27
2018-06-20T11:12:21.426Z,25.23
2018-06-20T11:14:49.996Z,25.49
2018-06-20T11:17:18.343Z,25.85
2018-06-20T11:19:47.705Z,26.18
2018-06-20T11:22:16.152Z,26.42
2018-06-20T11:24:44.592Z,26.62
2018-06-20T11:27:12.979Z,26.75
2018-06-20T11:29:41.304Z,26.93
2018-06-20T11:32:09.778Z,27.11
2018-06-20T11:34:38.195Z,27.31
2018-06-20T11:37:06.657Z,27.48
2018-06-20T11:39:35.200Z,27.66
2018-06-20T11:42:03.580Z,27.86
2018-06-20T11:44:32.168Z,28.09
2018-06-20T11:47:05.943Z,28.20
2018-06-20T11:49:34.385Z,28.41
2018-06-20T11:52:06.928Z,28.49
2018-06-20T11:54:35.320Z,28.41
2018-06-20T11:57:03.723Z,28.27
2018-06-20T11:59:37.510Z,28.15
2018-06-20T12:02:11.307Z,28.03
2018-06-20T12:04:45.006Z,27.89
2018-06-20T12:07:18.708Z,28.02
2018-06-20T12:09:52.367Z,28.28
2018-06-20T12:12:26.128Z,28.40
2018-06-20T12:14:59.851Z,28.64
2018-06-20T12:17:33.559Z,28.87
2018-06-20T12:20:07.278Z,28.99
2018-06-20T12:22:40.819Z,29.01
2018-06-20T12:25:14.427Z,29.11
2018-06-20T12:27:48.259Z,29.22
2018-06-20T12:30:21.972Z,29.47
2018-06-20T12:32:55.507Z,29.66
2018-06-20T12:35:29.199Z,29.78
2018-06-20T12:38:02.907Z,29.80
2018-06-20T12:40:36.563Z,29.73
2018-06-20T12:43:10.272Z,29.64
2018-06-20T12:45:39.145Z,29.30
2018-06-20T12:48:07.648Z,28.98
2018-06-20T12:50:36.045Z,28.95
2018-06-20T12:53:04.435Z,29.15
2018-06-20T12:55:32.879Z,29.36
2018-06-20T12:58:01.320Z,29.42
2018-06-20T13:00:29.676Z,29.08
2018-06-20T13:02:58.063Z,28.74
2018-06-20T13:05:26.500Z,28.38
2018-06-20T13:07:54.912Z,28.27
2018-06-20T13:10:23.297Z,28.53
2018-06-20T13:12:51.620Z,28.86
2018-06-20T13:15:19.994Z,29.10
2018-06-20T13:17:48.444Z,29.26
2018-06-20T13:20:16.937Z,29.39
2018-06-20T13:22:45.340Z,29.38
2018-06-20T13:25:13.762Z,29.25
2018-06-20T13:27:47.914Z,29.13
2018-06-20T13:30:16.693Z,29.07
2018-06-20T13:32:50.396Z,29.04
2018-06-20T13:35:23.869Z,29.12
2018-06-20T13:37:57.567Z,29.26
2018-06-20T13:40:31.127Z,29.41
2018-06-20T13:43:04.834Z,29.57
2018-06-20T13:45:38.629Z,29.73
2018-06-20T13:48:12.228Z,29.89
2018-06-20T13:50:40.613Z,30.08
2018-06-20T13:53:09.088Z,30.19
2018-06-20T13:55:37.559Z,30.22
2018-06-20T13:58:06.056Z,30.25
2018-06-20T14:00:34.483Z,30.33
2018-06-20T14:03:02.966Z,30.41
2018-06-20T14:05:31.340Z,30.52
2018-06-20T14:07:59.762Z,30.27
2018-06-20T14:10:28.127Z,29.93
2018-06-20T14:12:56.573Z,29.90
2018-06-20T14:15:25.019Z,29.75
2018-06-20T14:17:53.516Z,29.74
2018-06-20T14:20:27.284Z,29.84
2018-06-20T14:22:56.791Z,30.04
2018-06-20T14:25:25.237Z,30.12
2018-06-20T14:27:53.637Z,29.91
2018-06-20T14:30:27.643Z,29.81
2018-06-20T14:33:01.338Z,29.85
2018-06-20T14:35:35.606Z,29.84
2018-06-20T14:38:09.295Z,29.91
2018-06-20T14:41:15.793Z,29.93
2018-06-20T14:43:49.524Z,29.90
2018-06-20T14:46:20.817Z,29.68
2018-06-20T14:48:49.199Z,29.47
2018-06-20T14:51:18.072Z,29.44
2018-06-20T14:53:47.080Z,29.47
2018-06-20T14:56:16.420Z,29.50
2018-06-20T14:58:45.073Z,29.56
2018-06-20T15:01:13.478Z,29.53
2018-06-20T15:03:42.032Z,29.45
2018-06-20T15:06:10.441Z,29.39
2018-06-20T15:08:38.909Z,29.33
2018-06-20T15:11:07.477Z,29.32
2018-06-20T15:13:35.898Z,29.36
2018-06-20T15:16:09.668Z,29.44
2018-06-20T15:18:38.013Z,29.47
2018-06-20T15:21:06.553Z,29.48
2018-06-20T15:23:35.424Z,29.42
2018-06-20T15:26:09.358Z,29.41
2018-06-20T15:28:43.033Z,29.43
2018-06-20T15:31:16.680Z,29.45
2018-06-20T15:33:50.459Z,29.46
2018-06-20T15:36:24.203Z,29.48
2018-06-20T15:38:52.672Z,29.55
2018-06-20T15:41:21.110Z,29.57
2018-06-20T15:43:49.602Z,29.64
2018-06-20T15:46:18.124Z,29.72
2018-06-20T15:48:46.563Z,29.82
2018-06-20T15:51:14.973Z,29.99
2018-06-20T15:53:43.349Z,30.06
2018-06-20T15:56:11.779Z,30.15
2018-06-20T15:58:40.468Z,30.22
2018-06-20T16:01:08.916Z,30.30
2018-06-20T16:03:37.284Z,30.59
2018-06-20T16:06:05.658Z,31.22
2018-06-20T16:08:38.308Z,31.92
2018-06-20T16:11:06.928Z,32.52
2018-06-20T16:13:35.429Z,33.03
2018-06-20T16:16:05.310Z,33.57
2018-06-20T16:18:33.685Z,34.10
2018-06-20T16:21:07.387Z,34.51
2018-06-20T16:23:41.120Z,34.83
2018-06-20T16:27:15.702Z,35.14
2018-06-20T16:29:49.620Z,35.48
2018-06-20T16:32:18.059Z,35.58
2018-06-20T16:34:46.486Z,35.59
2018-06-20T16:37:15.905Z,35.81
2018-06-20T16:39:44.533Z,35.88
2018-06-20T16:42:12.967Z,36.01
2018-06-20T16:44:41.375Z,36.20
2018-06-20T16:47:09.835Z,36.34
2018-06-20T16:49:38.287Z,36.43
2018-06-20T16:52:06.811Z,36.44
2018-06-20T16:54:36.013Z,36.42
2018-06-20T16:57:04.598Z,36.32
2018-06-20T16:59:33.218Z,36.29
2018-06-20T17:02:06.943Z,36.17
2018-06-20T17:04:38.388Z,36.01
2018-06-20T17:07:08.089Z,35.85
2018-06-20T17:09:36.554Z,35.57
2018-06-20T17:12:10.530Z,35.30
2018-06-20T17:14:44.328Z,34.90
2018-06-20T17:17:18.264Z,34.45
2018-06-20T17:19:52.013Z,34.08
2018-06-20T17:22:25.773Z,33.77
2018-06-20T17:25:00.516Z,33.57
2018-06-20T17:27:28.999Z,33.51
2018-06-20T17:29:58.031Z,33.39
2018-06-20T17:32:26.489Z,33.20
2018-06-20T17:34:54.937Z,33.12
2018-06-20T17:37:23.290Z,32.95
2018-06-20T17:39:51.664Z,32.82
2018-06-20T17:42:20.844Z,32.68
2018-06-20T17:44:49.280Z,32.47
2018-06-20T17:47:17.717Z,32.31
2018-06-20T17:49:46.275Z,32.09
2018-06-20T17:52:14.651Z,31.81
2018-06-20T17:54:43.040Z,31.66
2018-06-20T17:57:12.680Z,31.38
2018-06-20T17:59:42.567Z,30.93
2018-06-20T18:02:12.675Z,30.47
2018-06-20T18:04:46.728Z,30.11
2018-06-20T18:07:20.648Z,29.85
2018-06-20T18:09:54.209Z,29.96
2018-06-20T18:13:00.015Z,30.08
2018-06-20T18:15:33.684Z,29.64
2018-06-20T18:18:02.044Z,29.27
2018-06-20T18:20:30.404Z,28.96
2018-06-20T18:22:58.805Z,28.73
2018-06-20T18:25:27.265Z,28.53
2018-06-20T18:27:55.667Z,28.38
2018-06-20T18:30:24.077Z,28.27
2018-06-20T18:32:52.479Z,28.15
2018-06-20T18:35:20.835Z,28.04
2018-06-20T18:37:49.292Z,27.96
2018-06-20T18:40:17.655Z,27.87
2018-06-20T18:42:45.979Z,27.80
2018-06-20T18:45:15.024Z,27.71
2018-06-20T18:47:49.744Z,27.62
2018-06-20T18:50:18.131Z,27.55
2018-06-20T18:52:46.470Z,27.49
2018-06-20T18:55:14.869Z,27.41
2018-06-20T18:57:48.540Z,27.36
2018-06-20T19:00:22.132Z,27.30
2018-06-20T19:02:55.917Z,27.19
2018-06-20T19:05:29.666Z,27.11
2018-06-20T19:08:03.373Z,27.02
2018-06-20T19:10:31.774Z,26.95
2018-06-20T19:13:00.140Z,26.88
2018-06-20T19:15:28.799Z,26.82
2018-06-20T19:17:57.220Z,26.74
2018-06-20T19:20:25.759Z,26.65
2018-06-20T19:22:54.076Z,26.52
2018-06-20T19:25:22.474Z,26.51
2018-06-20T19:27:50.831Z,26.46
2018-06-20T19:30:19.285Z,26.33
2018-06-20T19:32:47.652Z,26.32
2018-06-20T19:35:15.997Z,26.23
2018-06-20T19:37:44.429Z,26.14
2018-06-20T19:40:12.819Z,26.07
2018-06-20T19:42:41.210Z,25.98
2018-06-20T19:45:09.591Z,25.92
2018-06-20T19:47:37.995Z,25.86
2018-06-20T19:50:06.358Z,25.80
2018-06-20T19:52:34.735Z,25.73
2018-06-20T19:55:04.094Z,25.68
2018-06-20T19:57:32.463Z,25.60
2018-06-20T20:00:00.881Z,25.54
2018-06-20T20:02:29.517Z,25.49
2018-06-20T20:04:57.861Z,25.42
2018-06-20T20:07:26.226Z,25.44
2018-06-20T20:09:54.699Z,25.42
2018-06-20T20:12:23.103Z,25.38
2018-06-20T20:14:51.579Z,25.34
2018-06-20T20:17:19.960Z,25.33
2018-06-20T20:19:48.341Z,25.28
2018-06-20T20:22:16.726Z,25.24
2018-06-20T20:24:45.059Z,25.21
2018-06-20T20:27:13.431Z,25.18
2018-06-20T20:29:41.843Z,25.13
2018-06-20T20:32:10.281Z,25.10
2018-06-20T20:34:38.665Z,25.08
2018-06-20T20:37:07.067Z,25.04
2018-06-20T20:39:35.496Z,25.00
2018-06-20T20:42:03.922Z,24.98
2018-06-20T20:44:32.336Z,24.96
2018-06-20T20:47:00.754Z,24.91
2018-06-20T20:49:29.113Z,24.87
2018-06-20T20:51:57.594Z,24.82
2018-06-20T20:54:26.048Z,24.77
2018-06-20T20:56:54.427Z,24.74
2018-06-20T20:59:22.836Z,24.69
2018-06-20T21:01:51.188Z,24.64
2018-06-20T21:04:19.544Z,24.63
2018-06-20T21:06:47.982Z,24.60
2018-06-20T21:09:16.372Z,24.56
2018-06-20T21:11:44.831Z,24.53
2018-06-20T21:14:13.218Z,24.50
2018-06-20T21:16:41.742Z,24.46
2018-06-20T21:19:10.100Z,24.44
2018-06-20T21:21:38.464Z,24.41
2018-06-20T21:24:06.818Z,24.37
2018-06-20T21:26:35.212Z,24.36
2018-06-20T21:29:03.612Z,24.34
2018-06-20T21:31:32.010Z,24.30
2018-06-20T21:34:00.381Z,24.28
2018-06-20T21:36:28.779Z,24.23
2018-06-20T21:38:57.103Z,24.19
2018-06-20T21:41:25.497Z,24.16
2018-06-20T21:43:53.905Z,24.13
2018-06-20T21:46:22.288Z,24.10
2018-06-20T21:48:50.634Z,24.06
2018-06-20T21:51:18.996Z,24.02
2018-06-20T21:53:47.415Z,23.97
2018-06-20T21:56:15.855Z,23.93
2018-06-20T21:58:44.260Z,23.89
2018-06-20T22:01:12.618Z,23.83
2018-06-20T22:03:40.961Z,23.79
2018-06-20T22:06:09.551Z,23.76
2018-06-20T22:08:37.953Z,23.74
2018-06-20T22:11:06.521Z,23.71
2018-06-20T22:13:34.945Z,23.68
2018-06-20T22:16:03.364Z,23.66
2018-06-20T22:18:31.733Z,23.66
2018-06-20T22:21:00.152Z,23.64
2018-06-20T22:23:28.503Z,23.63
2018-06-20T22:25:56.903Z,23.60
2018-06-20T22:28:25.250Z,23.59
2018-06-20T22:30:53.710Z,23.58
2018-06-20T22:33:22.022Z,23.54
2018-06-20T22:35:50.416Z,23.53
2018-06-20T22:38:18.819Z,23.51
2018-06-20T22:40:47.247Z,23.47
2018-06-20T22:43:15.651Z,23.44
2018-06-20T22:45:44.016Z,23.40
2018-06-20T22:48:12.367Z,23.37
2018-06-20T22:50:40.776Z,23.34
2018-06-20T22:53:09.287Z,23.30
2018-06-20T22:55:37.664Z,23.29
2018-06-20T22:58:06.076Z,23.27
2018-06-20T23:00:34.470Z,23.26
2018-06-20T23:03:02.861Z,23.24
2018-06-20T23:05:31.216Z,23.22
2018-06-20T23:07:59.626Z,23.20
2018-06-20T23:10:28.024Z,23.17
2018-06-20T23:12:56.412Z,23.12
2018-06-20T23:15:24.826Z,23.07
2018-06-20T23:17:53.309Z,23.02
2018-06-20T23:20:21.708Z,23.00
2018-06-20T23:22:50.104Z,22.97
2018-06-20T23:25:18.520Z,22.96
2018-06-20T23:27:46.926Z,22.94
2018-06-20T23:30:15.317Z,22.90
2018-06-20T23:32:43.640Z,22.86
2018-06-20T23:35:12.050Z,22.84
2018-06-20T23:37:40.418Z,22.85
2018-06-20T23:40:08.839Z,22.87
2018-06-20T23:42:37.217Z,22.90
2018-06-20T23:45:05.708Z,22.93
2018-06-20T23:47:34.176Z,22.97
2018-06-20T23:50:02.523Z,22.99
2018-06-20T23:52:30.933Z,23.01
2018-06-20T23:54:59.260Z,23.05
2018-06-20T23:57:27.626Z,23.08
2018-06-20T23:59:56.005Z,23.08
